sensor_id;sensor_type;location;lat;lon;timestamp;P1;durP1;ratioP1;P2;durP2;ratioP2
52186;SDS011;38161;53.020;6.598;2023-02-11T00:01:36;26.17;;;8.57;;
52186;SDS011;38161;53.020;6.598;2023-02-11T00:04:02;25.90;;;8.65;;
52186;SDS011;38161;53.020;6.598;2023-02-11T00:06:30;22.55;;;6.63;;
52186;SDS011;38161;53.020;6.598;2023-02-11T00:08:57;21.80;;;7.47;;
52186;SDS011;38161;53.020;6.598;2023-02-11T00:11:24;29.67;;;8.82;;
52186;SDS011;38161;53.020;6.598;2023-02-11T00:13:54;30.73;;;8.73;;
52186;SDS011;38161;53.020;6.598;2023-02-11T00:16:21;29.50;;;10.35;;
52186;SDS011;38161;53.020;6.598;2023-02-11T00:18:47;24.52;;;6.90;;
52186;SDS011;38161;53.020;6.598;2023-02-11T00:21:18;22.77;;;6.93;;
52186;SDS011;38161;53.020;6.598;2023-02-11T00:23:46;19.92;;;6.53;;
52186;SDS011;38161;53.020;6.598;2023-02-11T00:26:16;26.98;;;8.57;;
52186;SDS011;38161;53.020;6.598;2023-02-11T00:28:42;23.38;;;6.75;;
52186;SDS011;38161;53.020;6.598;2023-02-11T00:31:08;24.27;;;7.22;;
52186;SDS011;38161;53.020;6.598;2023-02-11T00:33:35;22.77;;;7.57;;
52186;SDS011;38161;53.020;6.598;2023-02-11T00:36:04;29.57;;;8.10;;
52186;SDS011;38161;53.020;6.598;2023-02-11T00:38:35;27.77;;;7.53;;
52186;SDS011;38161;53.020;6.598;2023-02-11T00:41:00;30.83;;;7.87;;
52186;SDS011;38161;53.020;6.598;2023-02-11T00:43:26;21.57;;;7.50;;
52186;SDS011;38161;53.020;6.598;2023-02-11T00:45:52;28.03;;;7.47;;
52186;SDS011;38161;53.020;6.598;2023-02-11T00:48:17;30.93;;;8.10;;
52186;SDS011;38161;53.020;6.598;2023-02-11T00:50:43;26.73;;;8.37;;
52186;SDS011;38161;53.020;6.598;2023-02-11T00:53:09;26.57;;;8.77;;
52186;SDS011;38161;53.020;6.598;2023-02-11T00:55:34;30.08;;;9.18;;
52186;SDS011;38161;53.020;6.598;2023-02-11T00:58:00;24.73;;;8.43;;
52186;SDS011;38161;53.020;6.598;2023-02-11T01:00:32;30.70;;;9.35;;
52186;SDS011;38161;53.020;6.598;2023-02-11T01:03:20;31.15;;;8.55;;
52186;SDS011;38161;53.020;6.598;2023-02-11T01:06:18;20.25;;;7.95;;
52186;SDS011;38161;53.020;6.598;2023-02-11T01:08:44;25.40;;;9.07;;
52186;SDS011;38161;53.020;6.598;2023-02-11T01:11:14;22.63;;;7.00;;
52186;SDS011;38161;53.020;6.598;2023-02-11T01:13:42;18.75;;;7.22;;
52186;SDS011;38161;53.020;6.598;2023-02-11T01:16:08;30.20;;;8.10;;
52186;SDS011;38161;53.020;6.598;2023-02-11T01:18:35;29.08;;;7.78;;
52186;SDS011;38161;53.020;6.598;2023-02-11T01:21:02;22.88;;;7.57;;
52186;SDS011;38161;53.020;6.598;2023-02-11T01:23:28;26.42;;;7.25;;
52186;SDS011;38161;53.020;6.598;2023-02-11T01:25:53;23.63;;;7.87;;
52186;SDS011;38161;53.020;6.598;2023-02-11T01:28:21;18.20;;;7.00;;
52186;SDS011;38161;53.020;6.598;2023-02-11T01:30:48;26.98;;;9.23;;
52186;SDS011;38161;53.020;6.598;2023-02-11T01:33:14;21.48;;;8.25;;
52186;SDS011;38161;53.020;6.598;2023-02-11T01:35:40;31.00;;;8.60;;
52186;SDS011;38161;53.020;6.598;2023-02-11T01:38:07;25.35;;;7.38;;
52186;SDS011;38161;53.020;6.598;2023-02-11T01:40:38;21.80;;;7.68;;
52186;SDS011;38161;53.020;6.598;2023-02-11T01:43:04;22.90;;;7.80;;
52186;SDS011;38161;53.020;6.598;2023-02-11T01:46:05;29.35;;;9.60;;
52186;SDS011;38161;53.020;6.598;2023-02-11T01:48:38;22.30;;;7.43;;
52186;SDS011;38161;53.020;6.598;2023-02-11T01:51:30;19.88;;;7.35;;
52186;SDS011;38161;53.020;6.598;2023-02-11T01:53:58;21.85;;;7.28;;
52186;SDS011;38161;53.020;6.598;2023-02-11T02:08:18;21.83;;;7.85;;
52186;SDS011;38161;53.020;6.598;2023-02-11T02:10:49;25.27;;;8.10;;
52186;SDS011;38161;53.020;6.598;2023-02-11T02:13:20;21.50;;;7.97;;
52186;SDS011;38161;53.020;6.598;2023-02-11T02:15:53;26.02;;;8.38;;
52186;SDS011;38161;53.020;6.598;2023-02-11T02:23:54;22.55;;;8.90;;
52186;SDS011;38161;53.020;6.598;2023-02-11T02:29:42;25.00;;;8.25;;
52186;SDS011;38161;53.020;6.598;2023-02-11T02:37:54;22.25;;;9.05;;
52186;SDS011;38161;53.020;6.598;2023-02-11T02:40:34;28.70;;;9.40;;
52186;SDS011;38161;53.020;6.598;2023-02-11T02:43:05;26.75;;;10.82;;
52186;SDS011;38161;53.020;6.598;2023-02-11T02:45:33;28.95;;;10.75;;
52186;SDS011;38161;53.020;6.598;2023-02-11T02:47:59;24.70;;;10.37;;
52186;SDS011;38161;53.020;6.598;2023-02-11T02:50:26;25.17;;;10.60;;
52186;SDS011;38161;53.020;6.598;2023-02-11T02:53:10;26.13;;;11.45;;
52186;SDS011;38161;53.020;6.598;2023-02-11T02:55:53;22.63;;;10.68;;
52186;SDS011;38161;53.020;6.598;2023-02-11T02:58:47;26.48;;;12.30;;
52186;SDS011;38161;53.020;6.598;2023-02-11T03:09:57;31.27;;;12.85;;
52186;SDS011;38161;53.020;6.598;2023-02-11T03:12:33;28.48;;;12.55;;
52186;SDS011;38161;53.020;6.598;2023-02-11T03:15:00;32.90;;;12.32;;
52186;SDS011;38161;53.020;6.598;2023-02-11T03:17:29;28.30;;;11.85;;
52186;SDS011;38161;53.020;6.598;2023-02-11T03:19:58;31.17;;;12.85;;
52186;SDS011;38161;53.020;6.598;2023-02-11T03:22:36;38.65;;;13.90;;
52186;SDS011;38161;53.020;6.598;2023-02-11T03:25:07;28.73;;;12.70;;
52186;SDS011;38161;53.020;6.598;2023-02-11T03:33:29;27.80;;;12.50;;
52186;SDS011;38161;53.020;6.598;2023-02-11T03:35:39;32.85;;;13.43;;
52186;SDS011;38161;53.020;6.598;2023-02-11T03:38:16;29.33;;;12.77;;
52186;SDS011;38161;53.020;6.598;2023-02-11T03:43:16;31.38;;;13.88;;
52186;SDS011;38161;53.020;6.598;2023-02-11T03:45:45;28.70;;;13.63;;
52186;SDS011;38161;53.020;6.598;2023-02-11T03:48:21;28.92;;;13.75;;
52186;SDS011;38161;53.020;6.598;2023-02-11T03:50:56;24.52;;;13.00;;
52186;SDS011;38161;53.020;6.598;2023-02-11T03:53:25;32.50;;;15.20;;
52186;SDS011;38161;53.020;6.598;2023-02-11T03:55:51;30.53;;;13.13;;
52186;SDS011;38161;53.020;6.598;2023-02-11T03:58:20;27.48;;;13.40;;
52186;SDS011;38161;53.020;6.598;2023-02-11T04:00:46;32.13;;;14.95;;
52186;SDS011;38161;53.020;6.598;2023-02-11T04:03:12;29.17;;;14.63;;
52186;SDS011;38161;53.020;6.598;2023-02-11T04:05:38;29.63;;;13.63;;
52186;SDS011;38161;53.020;6.598;2023-02-11T04:08:05;29.75;;;13.98;;
52186;SDS011;38161;53.020;6.598;2023-02-11T04:10:31;36.25;;;15.63;;
52186;SDS011;38161;53.020;6.598;2023-02-11T04:12:57;25.90;;;13.95;;
52186;SDS011;38161;53.020;6.598;2023-02-11T04:15:23;30.87;;;14.23;;
52186;SDS011;38161;53.020;6.598;2023-02-11T04:17:49;34.13;;;14.75;;
52186;SDS011;38161;53.020;6.598;2023-02-11T04:20:15;32.33;;;14.93;;
52186;SDS011;38161;53.020;6.598;2023-02-11T04:22:40;29.47;;;13.47;;
52186;SDS011;38161;53.020;6.598;2023-02-11T04:25:06;27.80;;;13.77;;
52186;SDS011;38161;53.020;6.598;2023-02-11T04:29:59;27.50;;;13.30;;
52186;SDS011;38161;53.020;6.598;2023-02-11T04:32:25;32.60;;;14.87;;
52186;SDS011;38161;53.020;6.598;2023-02-11T04:34:50;34.33;;;16.37;;
52186;SDS011;38161;53.020;6.598;2023-02-11T04:37:16;32.63;;;14.80;;
52186;SDS011;38161;53.020;6.598;2023-02-11T04:39:42;29.03;;;14.03;;
52186;SDS011;38161;53.020;6.598;2023-02-11T04:42:07;29.03;;;15.30;;
52186;SDS011;38161;53.020;6.598;2023-02-11T04:44:33;35.07;;;15.47;;
52186;SDS011;38161;53.020;6.598;2023-02-11T04:46:59;32.57;;;15.10;;
52186;SDS011;38161;53.020;6.598;2023-02-11T04:49:24;37.63;;;15.77;;
52186;SDS011;38161;53.020;6.598;2023-02-11T04:51:50;35.70;;;15.37;;
52186;SDS011;38161;53.020;6.598;2023-02-11T04:54:16;29.87;;;13.90;;
52186;SDS011;38161;53.020;6.598;2023-02-11T04:56:42;33.20;;;14.70;;
52186;SDS011;38161;53.020;6.598;2023-02-11T04:59:08;30.65;;;15.40;;
52186;SDS011;38161;53.020;6.598;2023-02-11T05:01:34;32.03;;;16.13;;
52186;SDS011;38161;53.020;6.598;2023-02-11T05:03:59;31.40;;;14.73;;
52186;SDS011;38161;53.020;6.598;2023-02-11T05:06:25;28.87;;;16.07;;
52186;SDS011;38161;53.020;6.598;2023-02-11T05:08:51;29.93;;;15.43;;
52186;SDS011;38161;53.020;6.598;2023-02-11T05:11:18;35.10;;;16.90;;
52186;SDS011;38161;53.020;6.598;2023-02-11T05:13:45;28.10;;;14.32;;
52186;SDS011;38161;53.020;6.598;2023-02-11T05:16:11;35.42;;;16.00;;
52186;SDS011;38161;53.020;6.598;2023-02-11T05:18:38;34.35;;;16.40;;
52186;SDS011;38161;53.020;6.598;2023-02-11T05:21:05;29.95;;;15.98;;
52186;SDS011;38161;53.020;6.598;2023-02-11T05:23:32;31.35;;;16.20;;
52186;SDS011;38161;53.020;6.598;2023-02-11T05:25:58;28.88;;;16.20;;
52186;SDS011;38161;53.020;6.598;2023-02-11T05:28:24;36.85;;;16.33;;
52186;SDS011;38161;53.020;6.598;2023-02-11T05:30:50;30.80;;;17.03;;
52186;SDS011;38161;53.020;6.598;2023-02-11T05:33:16;36.00;;;16.67;;
52186;SDS011;38161;53.020;6.598;2023-02-11T05:35:41;35.57;;;16.33;;
52186;SDS011;38161;53.020;6.598;2023-02-11T05:38:08;30.20;;;16.95;;
52186;SDS011;38161;53.020;6.598;2023-02-11T05:40:33;40.57;;;17.43;;
52186;SDS011;38161;53.020;6.598;2023-02-11T05:42:59;32.83;;;15.55;;
52186;SDS011;38161;53.020;6.598;2023-02-11T05:45:25;38.07;;;18.27;;
52186;SDS011;38161;53.020;6.598;2023-02-11T05:47:51;34.70;;;17.53;;
52186;SDS011;38161;53.020;6.598;2023-02-11T05:50:16;36.77;;;17.03;;
52186;SDS011;38161;53.020;6.598;2023-02-11T05:52:42;34.53;;;17.83;;
52186;SDS011;38161;53.020;6.598;2023-02-11T05:55:08;34.95;;;18.20;;
52186;SDS011;38161;53.020;6.598;2023-02-11T05:57:34;34.67;;;19.05;;
52186;SDS011;38161;53.020;6.598;2023-02-11T06:00:00;31.23;;;16.47;;
52186;SDS011;38161;53.020;6.598;2023-02-11T06:02:26;38.60;;;17.73;;
52186;SDS011;38161;53.020;6.598;2023-02-11T06:04:52;29.63;;;16.30;;
52186;SDS011;38161;53.020;6.598;2023-02-11T06:07:17;35.80;;;17.23;;
52186;SDS011;38161;53.020;6.598;2023-02-11T06:09:43;34.60;;;18.10;;
52186;SDS011;38161;53.020;6.598;2023-02-11T06:12:09;30.63;;;17.17;;
52186;SDS011;38161;53.020;6.598;2023-02-11T06:14:35;28.47;;;15.97;;
52186;SDS011;38161;53.020;6.598;2023-02-11T06:17:01;34.87;;;17.27;;
52186;SDS011;38161;53.020;6.598;2023-02-11T06:19:27;33.00;;;17.10;;
52186;SDS011;38161;53.020;6.598;2023-02-11T06:21:53;35.85;;;18.17;;
52186;SDS011;38161;53.020;6.598;2023-02-11T06:24:20;40.17;;;17.90;;
52186;SDS011;38161;53.020;6.598;2023-02-11T06:26:46;38.75;;;18.35;;
52186;SDS011;38161;53.020;6.598;2023-02-11T06:29:11;36.53;;;17.23;;
52186;SDS011;38161;53.020;6.598;2023-02-11T06:31:38;33.25;;;17.33;;
52186;SDS011;38161;53.020;6.598;2023-02-11T06:34:04;36.13;;;18.75;;
52186;SDS011;38161;53.020;6.598;2023-02-11T06:36:30;36.22;;;18.00;;
52186;SDS011;38161;53.020;6.598;2023-02-11T06:38:55;37.70;;;17.93;;
52186;SDS011;38161;53.020;6.598;2023-02-11T06:41:21;34.73;;;17.07;;
52186;SDS011;38161;53.020;6.598;2023-02-11T06:43:48;34.33;;;17.40;;
52186;SDS011;38161;53.020;6.598;2023-02-11T06:46:14;36.25;;;19.13;;
52186;SDS011;38161;53.020;6.598;2023-02-11T06:48:40;37.22;;;18.88;;
52186;SDS011;38161;53.020;6.598;2023-02-11T06:51:07;39.97;;;19.57;;
52186;SDS011;38161;53.020;6.598;2023-02-11T06:53:37;33.45;;;19.00;;
52186;SDS011;38161;53.020;6.598;2023-02-11T06:56:09;33.13;;;19.10;;
52186;SDS011;38161;53.020;6.598;2023-02-11T06:58:38;37.20;;;19.45;;
52186;SDS011;38161;53.020;6.598;2023-02-11T07:01:05;33.40;;;18.37;;
52186;SDS011;38161;53.020;6.598;2023-02-11T07:03:33;41.45;;;19.25;;
52186;SDS011;38161;53.020;6.598;2023-02-11T07:06:00;36.40;;;18.73;;
52186;SDS011;38161;53.020;6.598;2023-02-11T07:08:29;39.40;;;19.73;;
52186;SDS011;38161;53.020;6.598;2023-02-11T07:10:57;33.03;;;18.55;;
52186;SDS011;38161;53.020;6.598;2023-02-11T07:13:23;42.47;;;18.97;;
52186;SDS011;38161;53.020;6.598;2023-02-11T07:15:48;41.50;;;21.07;;
52186;SDS011;38161;53.020;6.598;2023-02-11T07:18:14;38.27;;;20.47;;
52186;SDS011;38161;53.020;6.598;2023-02-11T07:20:40;36.53;;;19.23;;
52186;SDS011;38161;53.020;6.598;2023-02-11T07:23:06;39.47;;;20.23;;
52186;SDS011;38161;53.020;6.598;2023-02-11T07:25:32;38.67;;;20.83;;
52186;SDS011;38161;53.020;6.598;2023-02-11T07:27:57;41.13;;;20.88;;
52186;SDS011;38161;53.020;6.598;2023-02-11T07:30:23;32.73;;;20.17;;
52186;SDS011;38161;53.020;6.598;2023-02-11T07:32:49;43.13;;;21.23;;
52186;SDS011;38161;53.020;6.598;2023-02-11T07:35:15;36.00;;;18.40;;
52186;SDS011;38161;53.020;6.598;2023-02-11T07:37:40;33.90;;;19.57;;
52186;SDS011;38161;53.020;6.598;2023-02-11T07:40:06;43.30;;;21.10;;
52186;SDS011;38161;53.020;6.598;2023-02-11T07:44:59;37.90;;;20.23;;
52186;SDS011;38161;53.020;6.598;2023-02-11T07:47:25;45.13;;;22.40;;
52186;SDS011;38161;53.020;6.598;2023-02-11T07:49:51;44.60;;;22.10;;
52186;SDS011;38161;53.020;6.598;2023-02-11T07:52:16;42.13;;;22.43;;
52186;SDS011;38161;53.020;6.598;2023-02-11T07:54:42;45.83;;;21.23;;
52186;SDS011;38161;53.020;6.598;2023-02-11T07:57:08;38.87;;;21.67;;
52186;SDS011;38161;53.020;6.598;2023-02-11T07:59:34;37.80;;;21.97;;
52186;SDS011;38161;53.020;6.598;2023-02-11T08:01:59;48.13;;;22.07;;
52186;SDS011;38161;53.020;6.598;2023-02-11T08:04:25;40.73;;;22.07;;
52186;SDS011;38161;53.020;6.598;2023-02-11T08:06:51;43.13;;;22.03;;
52186;SDS011;38161;53.020;6.598;2023-02-11T08:09:18;42.08;;;20.42;;
52186;SDS011;38161;53.020;6.598;2023-02-11T08:11:44;37.93;;;20.33;;
52186;SDS011;38161;53.020;6.598;2023-02-11T08:14:10;41.55;;;21.40;;
52186;SDS011;38161;53.020;6.598;2023-02-11T08:16:36;40.40;;;21.48;;
52186;SDS011;38161;53.020;6.598;2023-02-11T08:19:07;42.97;;;22.15;;
52186;SDS011;38161;53.020;6.598;2023-02-11T08:21:36;38.83;;;20.95;;
52186;SDS011;38161;53.020;6.598;2023-02-11T08:24:03;42.75;;;20.48;;
52186;SDS011;38161;53.020;6.598;2023-02-11T08:28:59;38.13;;;18.15;;
52186;SDS011;38161;53.020;6.598;2023-02-11T08:31:27;43.50;;;20.70;;
52186;SDS011;38161;53.020;6.598;2023-02-11T08:33:55;37.60;;;19.52;;
52186;SDS011;38161;53.020;6.598;2023-02-11T08:36:28;32.03;;;18.40;;
52186;SDS011;38161;53.020;6.598;2023-02-11T08:38:56;35.40;;;18.77;;
52186;SDS011;38161;53.020;6.598;2023-02-11T08:41:29;38.13;;;18.65;;
52186;SDS011;38161;53.020;6.598;2023-02-11T08:43:56;39.35;;;19.08;;
52186;SDS011;38161;53.020;6.598;2023-02-11T08:46:22;39.08;;;19.23;;
52186;SDS011;38161;53.020;6.598;2023-02-11T08:48:48;39.27;;;19.83;;
52186;SDS011;38161;53.020;6.598;2023-02-11T08:51:15;33.37;;;18.77;;
52186;SDS011;38161;53.020;6.598;2023-02-11T08:53:43;33.42;;;18.48;;
52186;SDS011;38161;53.020;6.598;2023-02-11T08:56:10;29.38;;;16.95;;
52186;SDS011;38161;53.020;6.598;2023-02-11T09:01:07;35.15;;;16.15;;
52186;SDS011;38161;53.020;6.598;2023-02-11T09:03:41;39.78;;;19.13;;
52186;SDS011;38161;53.020;6.598;2023-02-11T09:06:08;35.95;;;18.05;;
52186;SDS011;38161;53.020;6.598;2023-02-11T09:08:35;32.17;;;17.83;;
52186;SDS011;38161;53.020;6.598;2023-02-11T09:11:01;40.80;;;18.90;;
52186;SDS011;38161;53.020;6.598;2023-02-11T09:15:54;34.50;;;18.02;;
52186;SDS011;38161;53.020;6.598;2023-02-11T09:18:20;35.72;;;18.25;;
52186;SDS011;38161;53.020;6.598;2023-02-11T09:20:46;37.63;;;18.63;;
52186;SDS011;38161;53.020;6.598;2023-02-11T09:23:11;39.10;;;19.33;;
52186;SDS011;38161;53.020;6.598;2023-02-11T09:25:38;36.05;;;17.58;;
52186;SDS011;38161;53.020;6.598;2023-02-11T09:28:04;33.92;;;18.50;;
52186;SDS011;38161;53.020;6.598;2023-02-11T09:30:31;38.55;;;20.23;;
52186;SDS011;38161;53.020;6.598;2023-02-11T09:32:56;34.03;;;18.10;;
52186;SDS011;38161;53.020;6.598;2023-02-11T09:35:22;34.22;;;19.20;;
52186;SDS011;38161;53.020;6.598;2023-02-11T09:37:48;30.53;;;16.57;;
52186;SDS011;38161;53.020;6.598;2023-02-11T09:40:14;36.07;;;18.50;;
52186;SDS011;38161;53.020;6.598;2023-02-11T09:45:16;39.63;;;18.15;;
52186;SDS011;38161;53.020;6.598;2023-02-11T09:47:46;33.70;;;16.63;;
52186;SDS011;38161;53.020;6.598;2023-02-11T09:50:16;30.77;;;17.48;;
52186;SDS011;38161;53.020;6.598;2023-02-11T09:52:51;29.95;;;16.73;;
52186;SDS011;38161;53.020;6.598;2023-02-11T09:58:19;26.92;;;14.82;;
52186;SDS011;38161;53.020;6.598;2023-02-11T10:00:52;32.38;;;15.80;;
52186;SDS011;38161;53.020;6.598;2023-02-11T10:09:39;26.08;;;13.60;;
52186;SDS011;38161;53.020;6.598;2023-02-11T10:14:49;24.15;;;13.73;;
52186;SDS011;38161;53.020;6.598;2023-02-11T10:22:49;31.00;;;12.63;;
52186;SDS011;38161;53.020;6.598;2023-02-11T10:25:23;24.77;;;13.15;;
52186;SDS011;38161;53.020;6.598;2023-02-11T10:27:53;23.75;;;12.57;;
52186;SDS011;38161;53.020;6.598;2023-02-11T10:35:27;25.02;;;12.10;;
52186;SDS011;38161;53.020;6.598;2023-02-11T10:37:53;29.50;;;13.35;;
52186;SDS011;38161;53.020;6.598;2023-02-11T10:40:23;25.05;;;13.02;;
52186;SDS011;38161;53.020;6.598;2023-02-11T10:42:53;23.10;;;11.35;;
52186;SDS011;38161;53.020;6.598;2023-02-11T10:45:29;26.65;;;11.85;;
52186;SDS011;38161;53.020;6.598;2023-02-11T10:47:59;22.23;;;12.20;;
52186;SDS011;38161;53.020;6.598;2023-02-11T10:50:28;22.05;;;11.77;;
52186;SDS011;38161;53.020;6.598;2023-02-11T10:55:36;23.85;;;11.75;;
52186;SDS011;38161;53.020;6.598;2023-02-11T10:58:02;23.73;;;12.07;;
52186;SDS011;38161;53.020;6.598;2023-02-11T11:03:04;21.25;;;11.27;;
52186;SDS011;38161;53.020;6.598;2023-02-11T11:05:50;21.27;;;10.93;;
52186;SDS011;38161;53.020;6.598;2023-02-11T11:08:17;21.65;;;10.50;;
52186;SDS011;38161;53.020;6.598;2023-02-11T11:10:45;18.88;;;10.38;;
52186;SDS011;38161;53.020;6.598;2023-02-11T11:13:29;20.92;;;10.05;;
52186;SDS011;38161;53.020;6.598;2023-02-11T11:18:39;20.77;;;9.25;;
52186;SDS011;38161;53.020;6.598;2023-02-11T11:21:12;21.45;;;9.52;;
52186;SDS011;38161;53.020;6.598;2023-02-11T11:23:48;17.95;;;9.00;;
52186;SDS011;38161;53.020;6.598;2023-02-11T11:26:44;21.10;;;9.10;;
52186;SDS011;38161;53.020;6.598;2023-02-11T11:29:18;19.92;;;8.85;;
52186;SDS011;38161;53.020;6.598;2023-02-11T11:32:26;21.33;;;8.70;;
52186;SDS011;38161;53.020;6.598;2023-02-11T11:35:00;19.35;;;9.18;;
52186;SDS011;38161;53.020;6.598;2023-02-11T11:37:31;23.27;;;9.20;;
52186;SDS011;38161;53.020;6.598;2023-02-11T11:42:40;17.27;;;6.93;;
52186;SDS011;38161;53.020;6.598;2023-02-11T11:55:50;19.23;;;6.80;;
52186;SDS011;38161;53.020;6.598;2023-02-11T11:58:23;17.35;;;6.90;;
52186;SDS011;38161;53.020;6.598;2023-02-11T12:12:05;20.85;;;6.13;;
52186;SDS011;38161;53.020;6.598;2023-02-11T12:33:20;15.52;;;5.45;;
52186;SDS011;38161;53.020;6.598;2023-02-11T12:56:13;13.60;;;4.55;;
52186;SDS011;38161;53.020;6.598;2023-02-11T12:58:47;13.52;;;5.72;;
52186;SDS011;38161;53.020;6.598;2023-02-11T13:01:25;17.50;;;5.20;;
52186;SDS011;38161;53.020;6.598;2023-02-11T13:03:56;16.00;;;4.57;;
52186;SDS011;38161;53.020;6.598;2023-02-11T13:06:35;19.25;;;6.40;;
52186;SDS011;38161;53.020;6.598;2023-02-11T13:09:12;20.88;;;7.05;;
52186;SDS011;38161;53.020;6.598;2023-02-11T13:11:46;14.88;;;4.70;;
52186;SDS011;38161;53.020;6.598;2023-02-11T13:14:28;14.20;;;4.95;;
52186;SDS011;38161;53.020;6.598;2023-02-11T13:16:59;14.90;;;4.28;;
52186;SDS011;38161;53.020;6.598;2023-02-11T13:19:37;16.50;;;4.35;;
52186;SDS011;38161;53.020;6.598;2023-02-11T13:24:51;13.52;;;5.53;;
52186;SDS011;38161;53.020;6.598;2023-02-11T13:37:53;14.25;;;4.93;;
52186;SDS011;38161;53.020;6.598;2023-02-11T13:40:21;20.55;;;6.78;;
52186;SDS011;38161;53.020;6.598;2023-02-11T13:42:56;13.07;;;4.38;;
52186;SDS011;38161;53.020;6.598;2023-02-11T13:45:43;16.05;;;6.07;;
52186;SDS011;38161;53.020;6.598;2023-02-11T13:48:20;15.30;;;4.18;;
52186;SDS011;38161;53.020;6.598;2023-02-11T13:50:52;13.75;;;4.18;;
52186;SDS011;38161;53.020;6.598;2023-02-11T13:53:20;16.55;;;3.80;;
52186;SDS011;38161;53.020;6.598;2023-02-11T13:55:48;13.77;;;4.95;;
52186;SDS011;38161;53.020;6.598;2023-02-11T14:00:53;21.70;;;6.67;;
52186;SDS011;38161;53.020;6.598;2023-02-11T14:14:32;21.75;;;8.48;;
52186;SDS011;38161;53.020;6.598;2023-02-11T14:19:42;13.95;;;5.68;;
52186;SDS011;38161;53.020;6.598;2023-02-11T14:35:30;15.95;;;4.00;;
52186;SDS011;38161;53.020;6.598;2023-02-11T14:38:18;14.30;;;2.95;;
52186;SDS011;38161;53.020;6.598;2023-02-11T14:43:44;11.35;;;3.10;;
52186;SDS011;38161;53.020;6.598;2023-02-11T14:46:16;13.10;;;3.30;;
52186;SDS011;38161;53.020;6.598;2023-02-11T14:48:47;15.52;;;3.33;;
52186;SDS011;38161;53.020;6.598;2023-02-11T14:51:20;10.63;;;3.33;;
52186;SDS011;38161;53.020;6.598;2023-02-11T14:54:06;13.32;;;3.33;;
52186;SDS011;38161;53.020;6.598;2023-02-11T14:56:41;16.73;;;3.28;;
52186;SDS011;38161;53.020;6.598;2023-02-11T14:59:14;12.98;;;3.53;;
52186;SDS011;38161;53.020;6.598;2023-02-11T15:01:43;9.68;;;3.38;;
52186;SDS011;38161;53.020;6.598;2023-02-11T15:04:34;12.65;;;3.30;;
52186;SDS011;38161;53.020;6.598;2023-02-11T15:07:05;12.45;;;3.38;;
52186;SDS011;38161;53.020;6.598;2023-02-11T15:12:18;12.98;;;3.75;;
52186;SDS011;38161;53.020;6.598;2023-02-11T15:14:55;14.25;;;3.30;;
52186;SDS011;38161;53.020;6.598;2023-02-11T15:17:24;12.93;;;3.60;;
52186;SDS011;38161;53.020;6.598;2023-02-11T15:19:54;16.08;;;5.10;;
52186;SDS011;38161;53.020;6.598;2023-02-11T15:22:27;16.70;;;3.80;;
52186;SDS011;38161;53.020;6.598;2023-02-11T15:27:37;11.95;;;3.28;;
52186;SDS011;38161;53.020;6.598;2023-02-11T15:30:21;11.50;;;3.50;;
52186;SDS011;38161;53.020;6.598;2023-02-11T15:32:48;12.82;;;3.85;;
52186;SDS011;38161;53.020;6.598;2023-02-11T15:35:15;14.40;;;4.18;;
52186;SDS011;38161;53.020;6.598;2023-02-11T15:37:42;18.67;;;3.95;;
52186;SDS011;38161;53.020;6.598;2023-02-11T15:43:00;14.27;;;3.45;;
52186;SDS011;38161;53.020;6.598;2023-02-11T15:45:32;12.60;;;3.90;;
52186;SDS011;38161;53.020;6.598;2023-02-11T15:50:25;12.27;;;3.17;;
52186;SDS011;38161;53.020;6.598;2023-02-11T15:52:54;13.65;;;3.10;;
52186;SDS011;38161;53.020;6.598;2023-02-11T15:55:22;17.65;;;3.55;;
52186;SDS011;38161;53.020;6.598;2023-02-11T15:57:52;10.85;;;3.60;;
52186;SDS011;38161;53.020;6.598;2023-02-11T16:00:20;15.63;;;3.92;;
52186;SDS011;38161;53.020;6.598;2023-02-11T16:02:49;13.05;;;3.92;;
52186;SDS011;38161;53.020;6.598;2023-02-11T16:08:11;13.60;;;3.92;;
52186;SDS011;38161;53.020;6.598;2023-02-11T16:10:52;12.43;;;4.10;;
52186;SDS011;38161;53.020;6.598;2023-02-11T16:13:23;12.82;;;3.58;;
52186;SDS011;38161;53.020;6.598;2023-02-11T16:15:51;14.55;;;4.15;;
52186;SDS011;38161;53.020;6.598;2023-02-11T16:18:38;13.18;;;3.80;;
52186;SDS011;38161;53.020;6.598;2023-02-11T16:21:11;14.75;;;3.95;;
52186;SDS011;38161;53.020;6.598;2023-02-11T16:23:41;16.35;;;4.32;;
52186;SDS011;38161;53.020;6.598;2023-02-11T16:31:36;15.00;;;3.70;;
52186;SDS011;38161;53.020;6.598;2023-02-11T16:34:06;16.38;;;4.47;;
52186;SDS011;38161;53.020;6.598;2023-02-11T16:36:40;11.13;;;4.05;;
52186;SDS011;38161;53.020;6.598;2023-02-11T16:39:06;15.75;;;5.18;;
52186;SDS011;38161;53.020;6.598;2023-02-11T16:41:32;16.40;;;5.18;;
52186;SDS011;38161;53.020;6.598;2023-02-11T16:43:58;13.18;;;4.70;;
52186;SDS011;38161;53.020;6.598;2023-02-11T16:46:24;21.77;;;6.57;;
52186;SDS011;38161;53.020;6.598;2023-02-11T16:48:51;15.95;;;5.55;;
52186;SDS011;38161;53.020;6.598;2023-02-11T16:51:21;12.25;;;4.70;;
52186;SDS011;38161;53.020;6.598;2023-02-11T16:53:47;21.87;;;6.20;;
52186;SDS011;38161;53.020;6.598;2023-02-11T16:56:14;16.43;;;5.50;;
52186;SDS011;38161;53.020;6.598;2023-02-11T16:58:41;18.08;;;5.38;;
52186;SDS011;38161;53.020;6.598;2023-02-11T17:01:08;17.88;;;5.70;;
52186;SDS011;38161;53.020;6.598;2023-02-11T17:03:34;13.45;;;4.35;;
52186;SDS011;38161;53.020;6.598;2023-02-11T17:06:05;20.30;;;6.05;;
52186;SDS011;38161;53.020;6.598;2023-02-11T17:08:35;12.77;;;4.28;;
52186;SDS011;38161;53.020;6.598;2023-02-11T17:11:01;15.60;;;5.10;;
52186;SDS011;38161;53.020;6.598;2023-02-11T17:13:27;16.27;;;5.20;;
52186;SDS011;38161;53.020;6.598;2023-02-11T17:15:53;20.15;;;5.15;;
52186;SDS011;38161;53.020;6.598;2023-02-11T17:18:19;17.97;;;4.43;;
52186;SDS011;38161;53.020;6.598;2023-02-11T17:20:44;13.37;;;5.10;;
52186;SDS011;38161;53.020;6.598;2023-02-11T17:23:10;17.55;;;6.00;;
52186;SDS011;38161;53.020;6.598;2023-02-11T17:25:36;15.03;;;4.23;;
52186;SDS011;38161;53.020;6.598;2023-02-11T17:28:03;12.55;;;5.15;;
52186;SDS011;38161;53.020;6.598;2023-02-11T17:30:29;21.65;;;6.85;;
52186;SDS011;38161;53.020;6.598;2023-02-11T17:32:55;14.93;;;4.32;;
52186;SDS011;38161;53.020;6.598;2023-02-11T17:35:21;37.40;;;16.77;;
52186;SDS011;38161;53.020;6.598;2023-02-11T17:37:47;23.33;;;8.00;;
52186;SDS011;38161;53.020;6.598;2023-02-11T17:40:13;14.00;;;5.70;;
52186;SDS011;38161;53.020;6.598;2023-02-11T17:42:39;17.73;;;5.13;;
52186;SDS011;38161;53.020;6.598;2023-02-11T17:45:04;16.87;;;5.00;;
52186;SDS011;38161;53.020;6.598;2023-02-11T17:47:31;12.70;;;4.20;;
52186;SDS011;38161;53.020;6.598;2023-02-11T17:49:56;14.57;;;4.30;;
52186;SDS011;38161;53.020;6.598;2023-02-11T17:52:22;16.70;;;4.60;;
52186;SDS011;38161;53.020;6.598;2023-02-11T17:54:48;14.60;;;4.03;;
52186;SDS011;38161;53.020;6.598;2023-02-11T17:57:15;10.63;;;3.58;;
52186;SDS011;38161;53.020;6.598;2023-02-11T17:59:41;10.50;;;3.33;;
52186;SDS011;38161;53.020;6.598;2023-02-11T18:02:08;17.05;;;3.47;;
52186;SDS011;38161;53.020;6.598;2023-02-11T18:04:35;17.95;;;4.82;;
52186;SDS011;38161;53.020;6.598;2023-02-11T18:07:01;14.57;;;3.97;;
52186;SDS011;38161;53.020;6.598;2023-02-11T18:09:27;15.47;;;3.87;;
52186;SDS011;38161;53.020;6.598;2023-02-11T18:11:53;13.17;;;3.73;;
52186;SDS011;38161;53.020;6.598;2023-02-11T18:14:19;17.27;;;3.90;;
52186;SDS011;38161;53.020;6.598;2023-02-11T18:16:47;11.93;;;4.10;;